createdAt,value
2022-12-08T00:00:34.885Z,18.86
2022-12-08T00:03:04.724Z,19.07
2022-12-08T00:05:52.577Z,19.36
2022-12-08T00:08:40.209Z,19.13
2022-12-08T00:11:17.590Z,18.90
2022-12-08T00:13:47.767Z,19.05
2022-12-08T00:16:17.423Z,18.85
2022-12-08T00:18:47.022Z,18.89
2022-12-08T00:21:16.630Z,18.83
2022-12-08T00:23:46.454Z,19.07
2022-12-08T00:26:16.048Z,19.17
2022-12-08T00:28:45.614Z,19.13
2022-12-08T00:31:15.515Z,18.96
2022-12-08T00:33:45.163Z,19.59
2022-12-08T00:36:16.994Z,19.35
2022-12-08T00:38:48.729Z,19.46
2022-12-08T00:41:45.174Z,19.46
2022-12-08T00:44:24.914Z,19.29
2022-12-08T00:46:55.074Z,19.50
2022-12-08T00:49:24.684Z,19.23
2022-12-08T00:51:54.737Z,19.26
2022-12-08T00:54:25.131Z,19.61
2022-12-08T00:56:54.843Z,19.34
2022-12-08T00:59:24.392Z,19.60
2022-12-08T01:01:54.013Z,19.68
2022-12-08T01:04:23.756Z,19.81
2022-12-08T01:06:53.551Z,19.66
2022-12-08T01:09:23.164Z,19.65
2022-12-08T01:11:53.079Z,19.47
2022-12-08T01:14:22.786Z,19.69
2022-12-08T01:16:52.648Z,19.21
2022-12-08T01:19:22.377Z,19.55
2022-12-08T01:21:52.037Z,19.80
2022-12-08T01:24:23.652Z,19.69
2022-12-08T01:26:53.693Z,19.38
2022-12-08T01:29:23.866Z,19.61
2022-12-08T01:31:53.400Z,19.79
2022-12-08T01:34:23.044Z,19.81
2022-12-08T01:36:52.647Z,19.46
2022-12-08T01:39:22.450Z,19.76
2022-12-08T01:41:52.037Z,19.41
2022-12-08T01:44:21.540Z,19.76
2022-12-08T01:46:51.159Z,19.56
2022-12-08T01:49:25.581Z,19.40
2022-12-08T01:52:18.281Z,19.49
2022-12-08T01:55:02.558Z,19.31
2022-12-08T01:57:47.203Z,19.26
2022-12-08T02:00:21.405Z,19.14
2022-12-08T02:02:53.935Z,18.77
2022-12-08T02:05:27.690Z,19.30
2022-12-08T02:07:59.197Z,18.68
2022-12-08T02:10:32.293Z,19.11
2022-12-08T02:13:03.874Z,18.68
2022-12-08T02:15:41.513Z,18.66
2022-12-08T02:18:29.446Z,18.51
2022-12-08T02:21:45.833Z,18.53
2022-12-08T02:24:29.545Z,18.47
2022-12-08T02:27:20.892Z,18.24
2022-12-08T02:30:15.474Z,18.76
2022-12-08T02:33:03.023Z,18.52
2022-12-08T02:36:09.337Z,18.65
2022-12-08T02:39:03.359Z,18.68
2022-12-08T02:41:53.484Z,18.55
2022-12-08T02:44:47.004Z,18.43
2022-12-08T02:47:29.606Z,18.65
2022-12-08T02:50:00.900Z,18.38
2022-12-08T02:52:31.012Z,18.29
2022-12-08T02:55:06.325Z,18.58
2022-12-08T02:57:55.294Z,18.36
2022-12-08T03:00:27.486Z,18.04
2022-12-08T03:03:21.425Z,17.94
2022-12-08T03:06:09.782Z,17.96
2022-12-08T03:08:48.564Z,18.01
2022-12-08T03:11:34.997Z,18.05
2022-12-08T03:14:08.392Z,17.68
2022-12-08T03:16:40.491Z,17.83
2022-12-08T03:19:36.398Z,17.75
2022-12-08T03:22:09.179Z,17.82
2022-12-08T03:24:45.611Z,17.67
2022-12-08T03:27:30.565Z,17.87
2022-12-08T03:30:02.488Z,17.85
2022-12-08T03:32:49.206Z,17.62
2022-12-08T03:35:24.527Z,17.53
2022-12-08T03:37:54.297Z,17.39
2022-12-08T03:40:23.980Z,17.14
2022-12-08T03:42:53.648Z,17.33
2022-12-08T03:45:23.290Z,17.29
2022-12-08T03:47:53.484Z,17.12
2022-12-08T03:50:23.096Z,17.13
2022-12-08T03:52:52.705Z,17.13
2022-12-08T03:55:23.142Z,17.10
2022-12-08T03:57:52.733Z,17.01
2022-12-08T04:00:22.448Z,17.01
2022-12-08T04:02:52.064Z,17.18
2022-12-08T04:05:21.671Z,17.46
2022-12-08T04:07:51.229Z,17.43
2022-12-08T04:10:20.796Z,17.30
2022-12-08T04:12:50.336Z,17.74
2022-12-08T04:15:19.995Z,17.51
2022-12-08T04:17:49.590Z,17.70
2022-12-08T04:20:19.130Z,17.50
2022-12-08T04:22:48.811Z,17.74
2022-12-08T04:25:18.625Z,17.72
2022-12-08T04:27:48.202Z,18.10
2022-12-08T04:30:17.869Z,18.09
2022-12-08T04:32:47.731Z,18.11
2022-12-08T04:35:17.439Z,18.10
2022-12-08T04:37:47.001Z,18.17
2022-12-08T04:40:16.835Z,18.19
2022-12-08T04:42:46.893Z,18.41
2022-12-08T04:45:16.505Z,18.22
2022-12-08T04:47:46.239Z,18.07
2022-12-08T04:50:15.951Z,18.45
2022-12-08T04:52:45.613Z,18.42
2022-12-08T04:55:15.259Z,18.68
2022-12-08T04:57:44.851Z,18.88
2022-12-08T05:00:15.214Z,18.90
2022-12-08T05:02:44.930Z,18.96
2022-12-08T05:05:14.529Z,18.85
2022-12-08T05:07:44.203Z,19.08
2022-12-08T05:10:13.869Z,19.37
2022-12-08T05:12:43.566Z,19.46
2022-12-08T05:15:13.331Z,19.32
2022-12-08T05:17:42.935Z,19.23
2022-12-08T05:20:13.243Z,19.45
2022-12-08T05:22:42.801Z,19.19
2022-12-08T05:25:12.572Z,19.16
2022-12-08T05:27:42.175Z,19.33
2022-12-08T05:30:11.919Z,19.49
2022-12-08T05:32:41.514Z,19.43
2022-12-08T05:35:11.480Z,19.65
2022-12-08T05:37:41.041Z,19.54
2022-12-08T05:40:10.968Z,19.83
2022-12-08T05:42:40.533Z,19.59
2022-12-08T05:45:10.796Z,20.05
2022-12-08T05:47:40.339Z,19.93
2022-12-08T05:50:10.403Z,19.66
2022-12-08T05:52:39.979Z,19.69
2022-12-08T05:55:09.869Z,19.32
2022-12-08T05:57:39.421Z,19.55
2022-12-08T06:00:09.667Z,19.75
2022-12-08T06:02:39.360Z,19.53
2022-12-08T06:05:09.930Z,19.65
2022-12-08T06:07:39.573Z,19.89
2022-12-08T06:10:09.856Z,19.67
2022-12-08T06:12:39.423Z,19.40
2022-12-08T06:15:09.566Z,19.67
2022-12-08T06:17:39.259Z,18.85
2022-12-08T06:20:09.570Z,19.40
2022-12-08T06:22:39.971Z,19.46
2022-12-08T06:25:10.207Z,19.58
2022-12-08T06:27:39.977Z,19.57
2022-12-08T06:30:10.350Z,19.58
2022-12-08T06:32:39.997Z,19.48
2022-12-08T06:35:10.003Z,19.48
2022-12-08T06:37:39.732Z,19.77
2022-12-08T06:40:09.998Z,19.36
2022-12-08T06:42:45.460Z,19.48
2022-12-08T06:45:20.322Z,19.37
2022-12-08T06:47:49.870Z,19.57
2022-12-08T06:50:19.571Z,19.44
2022-12-08T06:53:00.787Z,18.78
2022-12-08T06:55:57.865Z,18.21
2022-12-08T06:58:23.192Z,17.99
2022-12-08T07:00:52.909Z,17.89
2022-12-08T07:03:22.530Z,17.80
2022-12-08T07:05:52.120Z,17.49
2022-12-08T07:08:21.833Z,17.53
2022-12-08T07:10:51.550Z,17.68
2022-12-08T07:13:21.179Z,17.53
2022-12-08T07:15:50.707Z,17.23
2022-12-08T07:18:20.296Z,17.61
2022-12-08T07:20:49.844Z,17.30
2022-12-08T07:23:19.453Z,17.36
2022-12-08T07:25:49.004Z,17.44
2022-12-08T07:28:18.565Z,16.76
2022-12-08T07:30:48.204Z,17.35
2022-12-08T07:33:17.777Z,16.97
2022-12-08T07:35:49.439Z,16.80
2022-12-08T07:38:19.775Z,16.89
2022-12-08T07:40:49.343Z,16.71
2022-12-08T07:43:19.158Z,16.78
2022-12-08T07:45:49.095Z,16.92
2022-12-08T07:48:18.791Z,16.94
2022-12-08T07:50:49.001Z,16.81
2022-12-08T07:53:18.540Z,16.95
2022-12-08T07:55:48.107Z,16.78
2022-12-08T07:58:17.629Z,16.88
2022-12-08T08:00:47.355Z,17.10
2022-12-08T08:03:17.041Z,17.03
2022-12-08T08:05:46.734Z,17.03
2022-12-08T08:08:16.427Z,17.05
2022-12-08T08:10:46.919Z,17.09
2022-12-08T08:13:16.872Z,16.92
2022-12-08T08:15:46.600Z,17.18
2022-12-08T08:18:16.200Z,17.23
2022-12-08T08:20:45.786Z,17.20
2022-12-08T08:23:15.415Z,17.25
2022-12-08T08:25:45.036Z,17.55
2022-12-08T08:28:14.623Z,17.62
2022-12-08T08:30:44.538Z,17.58
2022-12-08T08:33:14.277Z,17.67
2022-12-08T08:35:44.017Z,17.93
2022-12-08T08:38:13.927Z,17.86
2022-12-08T08:40:43.680Z,17.85
2022-12-08T08:43:34.469Z,17.91
2022-12-08T08:46:08.784Z,17.93
2022-12-08T08:48:38.574Z,17.83
2022-12-08T08:51:13.847Z,17.95
2022-12-08T08:53:44.210Z,17.96
2022-12-08T08:56:16.017Z,17.99
2022-12-08T08:58:45.683Z,18.24
2022-12-08T09:01:20.415Z,18.09
2022-12-08T09:03:50.802Z,18.09
2022-12-08T09:06:20.570Z,18.25
2022-12-08T09:08:51.034Z,18.26
2022-12-08T09:11:20.709Z,18.27
2022-12-08T09:13:51.247Z,18.32
2022-12-08T09:16:21.876Z,18.32
2022-12-08T09:18:51.518Z,18.22
2022-12-08T09:21:24.235Z,18.31
2022-12-08T09:23:56.664Z,18.21
2022-12-08T09:26:27.086Z,18.25
2022-12-08T09:28:57.939Z,18.25
2022-12-08T09:31:27.867Z,18.41
2022-12-08T09:33:57.597Z,18.26
2022-12-08T09:36:27.355Z,18.35
2022-12-08T09:38:56.894Z,18.30
2022-12-08T09:41:48.568Z,18.32
2022-12-08T09:44:42.650Z,18.42
2022-12-08T09:47:29.410Z,18.41
2022-12-08T09:50:36.992Z,18.37
2022-12-08T09:53:16.108Z,18.40
2022-12-08T09:55:57.936Z,18.38
2022-12-08T09:58:49.167Z,18.44
2022-12-08T10:01:19.005Z,18.50
2022-12-08T10:03:49.251Z,18.44
2022-12-08T10:06:24.601Z,18.50
2022-12-08T10:09:12.824Z,18.50
2022-12-08T10:11:52.241Z,18.51
2022-12-08T10:14:36.353Z,18.41
2022-12-08T10:17:19.537Z,18.31
2022-12-08T10:19:50.195Z,18.54
2022-12-08T10:25:14.960Z,18.51
2022-12-08T10:27:44.521Z,18.60
2022-12-08T10:30:19.282Z,18.54
2022-12-08T10:32:51.942Z,18.56
2022-12-08T10:35:24.192Z,18.63
2022-12-08T10:38:03.318Z,18.68
2022-12-08T10:40:45.348Z,18.61
2022-12-08T10:43:26.201Z,18.66
2022-12-08T10:45:56.525Z,18.69
2022-12-08T10:48:32.677Z,18.72
2022-12-08T10:51:04.665Z,18.86
2022-12-08T10:53:35.868Z,18.74
2022-12-08T10:56:05.334Z,18.77
2022-12-08T10:58:37.106Z,18.76
2022-12-08T11:01:30.091Z,18.75
2022-12-08T11:04:02.760Z,18.82
2022-12-08T11:06:35.334Z,18.82
2022-12-08T11:09:22.933Z,18.88
2022-12-08T11:11:57.298Z,18.85
2022-12-08T11:14:45.219Z,18.88
2022-12-08T11:17:26.468Z,18.87
2022-12-08T11:20:13.202Z,18.95
2022-12-08T11:22:42.711Z,18.95
2022-12-08T11:25:28.347Z,18.98
2022-12-08T11:28:03.258Z,18.92
2022-12-08T11:30:59.706Z,19.00
2022-12-08T11:33:31.272Z,18.91
2022-12-08T11:36:07.615Z,19.02
2022-12-08T11:38:43.756Z,18.98
2022-12-08T11:41:26.241Z,18.96
2022-12-08T11:44:19.521Z,19.03
2022-12-08T11:47:02.038Z,19.09
2022-12-08T11:49:41.846Z,19.08
2022-12-08T11:52:26.151Z,19.01
2022-12-08T11:54:55.654Z,19.04
2022-12-08T11:57:28.688Z,19.00
2022-12-08T12:00:00.251Z,19.06
2022-12-08T12:02:33.975Z,19.24
2022-12-08T12:05:33.239Z,19.04
2022-12-08T12:08:08.594Z,19.06
2022-12-08T12:10:57.318Z,19.08
2022-12-08T12:14:21.902Z,19.12
2022-12-08T12:17:07.733Z,19.11
2022-12-08T12:19:41.255Z,19.14
2022-12-08T12:22:17.842Z,19.10
2022-12-08T12:24:51.376Z,19.12
2022-12-08T12:27:31.917Z,19.12
2022-12-08T12:30:04.671Z,19.14
2022-12-08T12:32:50.966Z,19.17
2022-12-08T12:35:36.238Z,18.98
2022-12-08T12:38:30.675Z,19.23
2022-12-08T12:41:05.638Z,19.13
2022-12-08T12:43:38.289Z,19.26
2022-12-08T12:46:25.990Z,19.15
2022-12-08T12:48:55.600Z,19.26
2022-12-08T12:51:45.519Z,19.16
2022-12-08T12:54:29.664Z,19.10
2022-12-08T12:57:21.719Z,19.21
2022-12-08T12:59:57.357Z,19.17
2022-12-08T13:02:29.333Z,19.22
2022-12-08T13:05:10.637Z,19.17
2022-12-08T13:08:01.248Z,18.94
2022-12-08T13:10:30.832Z,19.19
2022-12-08T13:13:26.577Z,19.30
2022-12-08T13:15:57.947Z,19.12
2022-12-08T13:18:50.766Z,19.34
2022-12-08T13:21:23.755Z,19.07
2022-12-08T13:24:15.878Z,19.19
2022-12-08T13:26:53.302Z,19.13
2022-12-08T13:29:30.236Z,19.26
2022-12-08T13:32:07.104Z,19.19
2022-12-08T13:34:58.105Z,19.16
2022-12-08T13:37:54.984Z,19.18
2022-12-08T13:40:31.773Z,19.35
2022-12-08T13:43:38.790Z,19.14
2022-12-08T13:55:49.520Z,19.23
2022-12-08T13:57:40.095Z,19.23
2022-12-08T14:00:21.147Z,19.26
2022-12-08T14:02:53.176Z,19.35
2022-12-08T14:05:47.752Z,19.23
2022-12-08T14:08:57.148Z,19.22
2022-12-08T14:11:35.141Z,19.21
2022-12-08T14:14:06.004Z,19.19
2022-12-08T14:16:40.630Z,19.36
2022-12-08T14:19:28.441Z,19.33
2022-12-08T14:22:03.982Z,19.34
2022-12-08T14:24:34.713Z,19.29
2022-12-08T14:27:07.068Z,19.41
2022-12-08T14:29:54.031Z,19.28
2022-12-08T14:32:41.576Z,19.43
2022-12-08T14:35:11.072Z,19.41
2022-12-08T14:37:42.249Z,19.45
2022-12-08T14:40:32.832Z,19.38
2022-12-08T14:43:11.565Z,19.19
2022-12-08T14:45:46.939Z,19.36
2022-12-08T14:48:27.961Z,19.39
2022-12-08T14:51:28.906Z,19.31
2022-12-08T14:54:00.086Z,19.42
2022-12-08T14:56:40.659Z,19.43
2022-12-08T14:59:24.519Z,19.36
2022-12-08T15:01:54.642Z,19.39
2022-12-08T15:04:29.324Z,19.45
2022-12-08T15:07:01.792Z,19.51
2022-12-08T15:09:37.132Z,19.42
2022-12-08T15:12:09.311Z,19.43
2022-12-08T15:14:42.672Z,19.44
2022-12-08T15:17:37.836Z,19.43
2022-12-08T15:20:09.021Z,19.46
2022-12-08T15:22:38.656Z,19.50
2022-12-08T15:25:15.265Z,19.39
2022-12-08T15:27:50.612Z,19.35
2022-12-08T15:30:21.320Z,19.45
2022-12-08T15:32:53.728Z,19.46
2022-12-08T15:35:23.344Z,19.53
2022-12-08T15:37:52.919Z,19.58
2022-12-08T15:40:29.988Z,19.44
2022-12-08T15:42:59.671Z,19.57
2022-12-08T15:45:34.240Z,19.46
2022-12-08T15:48:03.833Z,19.63
2022-12-08T15:50:33.443Z,19.54
2022-12-08T15:53:03.946Z,19.53
2022-12-08T15:55:38.773Z,19.52
2022-12-08T16:00:59.091Z,19.66
2022-12-08T16:09:42.817Z,19.58
2022-12-08T16:18:25.612Z,19.62
2022-12-08T16:23:45.952Z,19.66
2022-12-08T16:29:21.638Z,19.72
2022-12-08T16:31:51.826Z,19.71
2022-12-08T16:34:21.431Z,19.69
2022-12-08T16:36:53.870Z,19.62
2022-12-08T16:39:23.476Z,19.61
2022-12-08T16:42:11.233Z,19.68
2022-12-08T16:44:46.043Z,19.59
2022-12-08T16:47:15.570Z,19.56
2022-12-08T16:49:45.098Z,19.62
2022-12-08T16:52:14.608Z,19.68
2022-12-08T16:54:44.186Z,19.76
2022-12-08T16:57:13.924Z,19.54
2022-12-08T16:59:43.899Z,19.81
2022-12-08T17:02:16.379Z,19.71
2022-12-08T17:04:46.292Z,19.64
2022-12-08T17:07:15.884Z,19.73
2022-12-08T17:09:45.548Z,19.60
2022-12-08T17:12:15.174Z,19.69
2022-12-08T17:14:44.767Z,19.77
2022-12-08T17:17:14.409Z,19.76
2022-12-08T17:19:44.044Z,19.88
2022-12-08T17:22:13.667Z,19.69
2022-12-08T17:24:43.248Z,19.54
2022-12-08T17:27:12.921Z,19.76
2022-12-08T17:29:42.451Z,19.64
2022-12-08T17:32:12.181Z,19.75
2022-12-08T17:34:41.887Z,19.75
2022-12-08T17:37:11.637Z,19.87
2022-12-08T17:39:41.636Z,19.87
2022-12-08T17:42:11.312Z,19.66
2022-12-08T17:44:41.008Z,19.69
2022-12-08T17:47:10.567Z,19.84
2022-12-08T17:49:40.187Z,19.70
2022-12-08T17:52:09.807Z,19.86
2022-12-08T17:54:39.553Z,19.75
2022-12-08T17:57:09.124Z,19.74
2022-12-08T17:59:38.834Z,19.72
2022-12-08T18:02:08.611Z,19.67
2022-12-08T18:04:38.205Z,19.81
2022-12-08T18:07:08.112Z,19.89
2022-12-08T18:09:37.772Z,19.85
2022-12-08T18:12:07.663Z,19.77
2022-12-08T18:14:37.280Z,19.93
2022-12-08T18:17:06.939Z,19.94
2022-12-08T18:19:36.593Z,19.90
2022-12-08T18:22:06.256Z,19.94
2022-12-08T18:24:35.828Z,19.91
2022-12-08T18:27:05.551Z,20.01
2022-12-08T18:29:35.149Z,19.92
2022-12-08T18:32:04.664Z,19.80
2022-12-08T18:34:34.342Z,19.76
2022-12-08T18:37:04.400Z,20.02
2022-12-08T18:39:35.247Z,19.95
2022-12-08T18:42:24.167Z,19.92
2022-12-08T18:44:57.824Z,19.99
2022-12-08T18:47:27.495Z,19.95
2022-12-08T18:49:57.286Z,20.01
2022-12-08T18:52:31.684Z,19.74
2022-12-08T18:55:06.639Z,20.00
2022-12-08T18:57:39.850Z,19.97
2022-12-08T19:00:11.205Z,20.04
2022-12-08T19:02:41.796Z,20.07
2022-12-08T19:05:13.709Z,20.12
2022-12-08T19:07:44.360Z,19.91
2022-12-08T19:10:14.679Z,20.09
2022-12-08T19:12:44.357Z,20.01
2022-12-08T19:15:14.164Z,19.98
2022-12-08T19:17:43.721Z,20.01
2022-12-08T19:20:14.498Z,20.07
2022-12-08T19:22:44.079Z,20.12
2022-12-08T19:25:13.799Z,19.99
2022-12-08T19:27:43.515Z,20.06
2022-12-08T19:30:13.678Z,20.11
2022-12-08T19:32:43.214Z,19.87
2022-12-08T19:35:13.153Z,20.34
2022-12-08T19:37:42.698Z,20.13
2022-12-08T19:40:36.051Z,20.11
2022-12-08T19:43:23.654Z,20.12
2022-12-08T19:45:53.716Z,20.06
2022-12-08T19:48:23.376Z,20.13
2022-12-08T19:50:53.101Z,20.19
2022-12-08T19:53:22.714Z,20.18
2022-12-08T19:55:52.555Z,20.17
2022-12-08T19:58:22.277Z,20.25
2022-12-08T20:00:51.910Z,20.21
2022-12-08T20:03:23.292Z,20.12
2022-12-08T20:05:56.885Z,20.27
2022-12-08T20:08:26.509Z,20.29
2022-12-08T20:10:57.516Z,20.29
2022-12-08T20:13:45.437Z,20.06
2022-12-08T20:16:16.106Z,20.24
2022-12-08T20:18:47.456Z,20.29
2022-12-08T20:21:17.081Z,20.10
2022-12-08T20:23:47.722Z,20.16
2022-12-08T20:26:19.018Z,20.13
2022-12-08T20:28:48.682Z,20.08
2022-12-08T20:31:38.298Z,20.18
2022-12-08T20:34:07.916Z,20.04
2022-12-08T20:36:37.506Z,20.25
2022-12-08T20:39:07.052Z,20.32
2022-12-08T20:41:39.315Z,20.26
2022-12-08T20:44:09.295Z,20.25
2022-12-08T20:46:39.680Z,20.25
2022-12-08T20:49:10.785Z,20.26
2022-12-08T20:51:40.385Z,20.23
2022-12-08T20:54:11.491Z,20.51
2022-12-08T20:56:48.141Z,20.72
2022-12-08T20:59:19.448Z,20.34
2022-12-08T21:01:49.306Z,20.16
2022-12-08T21:04:19.240Z,20.07
2022-12-08T21:06:49.008Z,19.37
2022-12-08T21:09:18.787Z,20.82
2022-12-08T21:11:48.684Z,20.39
2022-12-08T21:14:18.346Z,20.36
2022-12-08T21:16:48.071Z,20.63
2022-12-08T21:19:17.725Z,20.22
2022-12-08T21:21:47.594Z,20.57
2022-12-08T21:24:17.237Z,20.19
2022-12-08T21:26:46.865Z,19.96
2022-12-08T21:29:16.462Z,20.01
2022-12-08T21:31:46.184Z,19.68
2022-12-08T21:34:15.918Z,19.95
2022-12-08T21:36:45.487Z,19.49
2022-12-08T21:39:15.029Z,19.73
2022-12-08T21:42:02.601Z,19.58
2022-12-08T21:44:32.371Z,19.26
2022-12-08T21:47:02.209Z,18.79
2022-12-08T21:49:32.035Z,19.17
2022-12-08T21:52:01.947Z,20.08
2022-12-08T21:54:31.592Z,20.20
2022-12-08T21:57:01.161Z,20.25
2022-12-08T21:59:30.945Z,20.10
2022-12-08T22:02:00.832Z,20.46
2022-12-08T22:04:30.674Z,20.32
2022-12-08T22:07:00.385Z,20.21
2022-12-08T22:09:30.062Z,20.23
2022-12-08T22:12:00.939Z,20.25
2022-12-08T22:14:31.959Z,20.10
2022-12-08T22:17:01.868Z,20.12
2022-12-08T22:19:37.878Z,20.00
2022-12-08T22:22:09.850Z,20.09
2022-12-08T22:24:40.589Z,19.95
2022-12-08T22:27:10.249Z,20.08
2022-12-08T22:29:40.283Z,19.67
2022-12-08T22:32:10.011Z,20.00
2022-12-08T22:34:39.647Z,19.99
2022-12-08T22:37:09.283Z,19.92
2022-12-08T22:39:38.998Z,19.75
2022-12-08T22:42:08.990Z,19.86
2022-12-08T22:44:38.668Z,19.87
2022-12-08T22:47:08.531Z,20.13
2022-12-08T22:49:38.182Z,19.88
2022-12-08T22:52:07.971Z,19.35
2022-12-08T22:54:37.922Z,19.07
2022-12-08T22:57:07.743Z,19.00
2022-12-08T22:59:37.468Z,18.97
2022-12-08T23:02:07.065Z,19.14
2022-12-08T23:04:38.024Z,18.79
2022-12-08T23:07:08.522Z,19.13
2022-12-08T23:09:38.117Z,18.99
2022-12-08T23:12:08.237Z,19.11
2022-12-08T23:14:37.892Z,19.16
2022-12-08T23:17:07.591Z,19.49
2022-12-08T23:19:41.141Z,19.38
2022-12-08T23:22:10.237Z,19.47
2022-12-08T23:24:40.008Z,19.46
2022-12-08T23:27:10.188Z,19.76
2022-12-08T23:29:39.867Z,19.73
2022-12-08T23:32:09.639Z,19.82
2022-12-08T23:34:39.322Z,19.98
2022-12-08T23:37:09.260Z,19.79
2022-12-08T23:39:38.989Z,20.03
2022-12-08T23:42:08.737Z,20.14
2022-12-08T23:44:38.534Z,20.16
2022-12-08T23:47:08.417Z,20.01
2022-12-08T23:49:38.095Z,20.26
2022-12-08T23:52:07.823Z,19.96
2022-12-08T23:54:37.774Z,19.81
2022-12-08T23:57:08.781Z,20.29
2022-12-08T23:59:38.684Z,20.15
